MSC Vienna — A8CI9 — position and weather

sailwx.info

Track history (hours):
 
Tides and Currents Weather Stations Pressure Air Temp Water Temp Dewpoint Dewpoint Depression Visibility Wind Speed Wind Dir Waves Ship Positions

MSC Vienna

Last reported at 2017-May-29 20:30 UTC. Time now 2017-May-29 20:38 UTC.
Position N 39°13' E 009°04'.

Length 260.1 m; beam 32.2 m; draft 12 m.

Type: Ship (hazmat cat A). MMSI: 636090654.

Date/timePositionNaut miles runAvg speedWind from/ knotsBaromVisibWave heightAir tempDewpointWater temp
2017-May-29 20:30N 39°13' E 009°04'0 0.0
2017-May-29 20:00N 39°13' E 009°04'0 0.0
2017-May-29 19:30N 39°13' E 009°04'0 0.0
2017-May-29 19:00N 39°13' E 009°04'0 0.0
2017-May-29 18:27N 39°13' E 009°04'0 0.0
2017-May-29 18:00N 39°13' E 009°04'0 0.0
2017-May-29 17:30N 39°13' E 009°04'0 0.0
2017-May-29 16:57N 39°13' E 009°04'0 0.0
2017-May-29 16:30N 39°13' E 009°04'0 0.0
2017-May-29 16:00N 39°13' E 009°04'0 0.0
2017-May-29 15:30N 39°13' E 009°04'1 2.4
2017-May-29 15:00N 39°12' E 009°05'2 3.0
2017-May-29 14:30N 39°11' E 009°06'4 3.9
2017-May-29 13:30N 39°07' E 009°07'712.9
2017-May-29 13:00N 39°00' E 009°08'26815.7
2017-May-28 19:57N 38°59' E 003°23'816.9
2017-May-28 19:29N 38°59' E 003°13'916.8
2017-May-28 18:57N 39°00' E 003°02'816.8
2017-May-28 18:29N 39°01' E 002°52'1716.8
2017-May-28 17:27N 39°05' E 002°30'816.8
2017-May-28 16:59N 39°07' E 002°20'816.8
2017-May-28 16:30N 39°08' E 002°10'815.9
2017-May-28 16:00N 39°10' E 001°60'917.9
2017-May-28 15:30N 39°12' E 001°49'917.9
2017-May-28 15:00N 39°14' E 001°37'1817.6
2017-May-28 14:00N 39°16' E 001°15'7216.7
2017-May-28 09:43N 39°25' W 000°17'2 9.5
2017-May-28 09:30N 39°26' W 000°19'1 0.3
2017-May-28 06:10N 39°27' W 000°19'0 0.0
2017-May-28 05:40N 39°27' W 000°19'0 0.0
2017-May-27 18:28N 39°27' W 000°19'125 9.9
2017-May-27 05:50N 37°24' W 000°44'515.5
2017-May-27 05:30N 37°21' W 000°49'22615.3
2017-May-26 14:45N 36°00' W 005°12'518.9
2017-May-26 14:31N 35°59' W 005°18'  
2017-May-24 03:51N 37°29' W 023°52'515.1
2017-May-24 03:30N 37°29' W 023°58'815.2
2017-May-24 03:00N 37°30' W 024°08'815.3
2017-May-24 02:31N 37°30' W 024°17'815.3
2017-May-24 02:00N 37°30' W 024°27'815.5
2017-May-24 01:30N 37°30' W 024°37'815.3
2017-May-24 01:01N 37°30' W 024°46'815.0
2017-May-24 00:30N 37°30' W 024°56'815.6
2017-May-24 00:00N 37°30' W 025°06'815.1
2017-May-23 23:31N 37°30' W 025°15'815.1
2017-May-23 23:01N 37°30' W 025°25'815.3
2017-May-23 22:30N 37°30' W 025°34'714.9
2017-May-23 22:00N 37°30' W 025°44'815.2
2017-May-23 21:30N 37°30' W 025°53'715.0
2017-May-23 21:00N 37°30' W 026°03'815.3
2017-May-23 20:31N 37°30' W 026°12'815.4
2017-May-23 20:01N 37°30' W 026°22'815.7
2017-May-23 19:31N 37°30' W 026°32'816.2
2017-May-23 19:01N 37°30' W 026°42'815.9
2017-May-23 18:30N 37°30' W 026°52'815.9
2017-May-23 18:01N 37°30' W 027°02'4515.6
2017-May-23 15:05N 37°29' W 027°60'615.8
2017-May-23 14:44N 37°29' W 028°07'315.6
2017-May-23 14:30N 37°29' W 028°11'2515.3
2017-May-23 12:53N 37°28' W 028°42'615.0
2017-May-23 12:30N 37°28' W 028°49'815.2
2017-May-23 12:00N 37°28' W 028°59'815.1
2017-May-23 11:30N 37°28' W 029°09'815.2
2017-May-23 11:00N 37°27' W 029°18'715.2
2017-May-23 10:30N 37°27' W 029°28'815.6
2017-May-23 10:00N 37°27' W 029°38'816.1
2017-May-23 09:30N 37°27' W 029°48'915.9
2017-May-23 08:58N 37°26' W 029°58'  
Track history (hours):
 
Tides and Currents Weather Stations Pressure Air Temp Water Temp Dewpoint Dewpoint Depression Visibility Wind Speed Wind Dir Waves Ship Positions

MSC Vienna

Last reported at 2017-May-29 20:30 UTC. Time now 2017-May-29 20:39 UTC.
Position N 39°13' E 009°04'.

Length 260.1 m; beam 32.2 m; draft 12 m.

Type: Ship (hazmat cat A). MMSI: 636090654.

Date/timePositionNaut miles runAvg speedWind from/ knotsBaromVisibWave heightAir tempDewpointWater temp
2017-May-29 20:30N 39°13' E 009°04'0 0.0
2017-May-29 20:00N 39°13' E 009°04'0 0.0
2017-May-29 19:30N 39°13' E 009°04'0 0.0
2017-May-29 19:00N 39°13' E 009°04'0 0.0
2017-May-29 18:27N 39°13' E 009°04'0 0.0
2017-May-29 18:00N 39°13' E 009°04'0 0.0
2017-May-29 17:30N 39°13' E 009°04'0 0.0
2017-May-29 16:57N 39°13' E 009°04'0 0.0
2017-May-29 16:30N 39°13' E 009°04'0 0.0
2017-May-29 16:00N 39°13' E 009°04'0 0.0
2017-May-29 15:30N 39°13' E 009°04'1 2.4
2017-May-29 15:00N 39°12' E 009°05'2 3.0
2017-May-29 14:30N 39°11' E 009°06'4 3.9
2017-May-29 13:30N 39°07' E 009°07'712.9
2017-May-29 13:00N 39°00' E 009°08'26815.7
2017-May-28 19:57N 38°59' E 003°23'816.9
2017-May-28 19:29N 38°59' E 003°13'916.8
2017-May-28 18:57N 39°00' E 003°02'816.8
2017-May-28 18:29N 39°01' E 002°52'1716.8
2017-May-28 17:27N 39°05' E 002°30'816.8
2017-May-28 16:59N 39°07' E 002°20'816.8
2017-May-28 16:30N 39°08' E 002°10'815.9
2017-May-28 16:00N 39°10' E 001°60'917.9
2017-May-28 15:30N 39°12' E 001°49'917.9
2017-May-28 15:00N 39°14' E 001°37'1817.6
2017-May-28 14:00N 39°16' E 001°15'7216.7
2017-May-28 09:43N 39°25' W 000°17'2 9.5
2017-May-28 09:30N 39°26' W 000°19'1 0.3
2017-May-28 06:10N 39°27' W 000°19'0 0.0
2017-May-28 05:40N 39°27' W 000°19'0 0.0
2017-May-27 18:28N 39°27' W 000°19'125 9.9
2017-May-27 05:50N 37°24' W 000°44'515.5
2017-May-27 05:30N 37°21' W 000°49'22615.3
2017-May-26 14:45N 36°00' W 005°12'518.9
2017-May-26 14:31N 35°59' W 005°18'  
2017-May-24 03:51N 37°29' W 023°52'515.1
2017-May-24 03:30N 37°29' W 023°58'815.2
2017-May-24 03:00N 37°30' W 024°08'815.3
2017-May-24 02:31N 37°30' W 024°17'815.3
2017-May-24 02:00N 37°30' W 024°27'815.5
2017-May-24 01:30N 37°30' W 024°37'815.3
2017-May-24 01:01N 37°30' W 024°46'815.0
2017-May-24 00:30N 37°30' W 024°56'815.6
2017-May-24 00:00N 37°30' W 025°06'815.1
2017-May-23 23:31N 37°30' W 025°15'815.1
2017-May-23 23:01N 37°30' W 025°25'815.3
2017-May-23 22:30N 37°30' W 025°34'714.9
2017-May-23 22:00N 37°30' W 025°44'815.2
2017-May-23 21:30N 37°30' W 025°53'715.0
2017-May-23 21:00N 37°30' W 026°03'815.3
2017-May-23 20:31N 37°30' W 026°12'815.4
2017-May-23 20:01N 37°30' W 026°22'815.7
2017-May-23 19:31N 37°30' W 026°32'816.2
2017-May-23 19:01N 37°30' W 026°42'815.9
2017-May-23 18:30N 37°30' W 026°52'815.9
2017-May-23 18:01N 37°30' W 027°02'4515.6
2017-May-23 15:05N 37°29' W 027°60'615.8
2017-May-23 14:44N 37°29' W 028°07'315.6
2017-May-23 14:30N 37°29' W 028°11'2515.3
2017-May-23 12:53N 37°28' W 028°42'615.0
2017-May-23 12:30N 37°28' W 028°49'815.2
2017-May-23 12:00N 37°28' W 028°59'815.1
2017-May-23 11:30N 37°28' W 029°09'815.2
2017-May-23 11:00N 37°27' W 029°18'715.2
2017-May-23 10:30N 37°27' W 029°28'815.6
2017-May-23 10:00N 37°27' W 029°38'816.1
2017-May-23 09:30N 37°27' W 029°48'915.9
2017-May-23 08:58N 37°26' W 029°58'  

Dump ship's entire track history